Terminal Aerodrome Forecast
Issued by NWS

Home | Current Version | Previous Version | Text Only | Print | Product List | Glossary On
Versions: 1 2 3 4 5 6 7 8 9 10 11 12 13 14 15 16 17
000
FTUS41 KILN 020500 RRA
TAFLUK
TAF
KLUK 020545Z 0206/0306 VRB02KT P6SM SKC
     FM020700 00000KT 3SM BR SKC
      TEMPO 0208/0212 1/4SM FG VV001
     FM021300 17008KT P6SM SCT050 BKN200
     FM022200 15007KT P6SM FEW050 BKN150=

USA.gov is the U.S. government's official web portal to all federal, state and local government web resources and services.